createdAt,value
2023-01-26T00:01:53.721Z,71.47
2023-01-26T00:04:22.797Z,69.40
2023-01-26T00:06:51.709Z,70.80
2023-01-26T00:09:19.932Z,71.27
2023-01-26T00:11:47.900Z,68.87
2023-01-26T00:14:15.849Z,71.50
2023-01-26T00:16:43.770Z,76.53
2023-01-26T00:19:13.537Z,67.40
2023-01-26T00:21:41.442Z,70.13
2023-01-26T00:24:09.507Z,70.03
2023-01-26T00:26:37.462Z,70.57
2023-01-26T00:29:05.367Z,71.00
2023-01-26T00:31:33.368Z,66.43
2023-01-26T00:34:01.424Z,68.90
2023-01-26T00:36:30.687Z,66.00
2023-01-26T00:38:58.751Z,65.57
2023-01-26T00:41:44.580Z,60.43
2023-01-26T00:44:12.608Z,62.10
2023-01-26T00:46:40.492Z,61.80
2023-01-26T00:49:08.619Z,66.80
2023-01-26T00:51:38.153Z,66.60
2023-01-26T00:54:06.140Z,65.37
2023-01-26T00:56:34.040Z,66.33
2023-01-26T00:59:01.930Z,61.57
2023-01-26T01:01:30.000Z,62.70
2023-01-26T01:03:58.058Z,60.23
2023-01-26T01:06:28.388Z,64.63
2023-01-26T01:08:57.749Z,59.50
2023-01-26T01:11:25.755Z,59.40
2023-01-26T01:13:53.671Z,59.80
2023-01-26T01:16:21.643Z,55.87
2023-01-26T01:18:49.755Z,55.80
2023-01-26T01:21:18.720Z,54.53
2023-01-26T01:23:46.662Z,56.17
2023-01-26T01:26:17.025Z,51.80
2023-01-26T01:28:45.366Z,56.03
2023-01-26T01:31:15.266Z,58.63
2023-01-26T01:33:44.088Z,56.23
2023-01-26T01:36:15.224Z,54.77
2023-01-26T01:38:43.676Z,52.13
2023-01-26T01:41:11.986Z,53.40
2023-01-26T01:43:41.603Z,52.87
2023-01-26T01:46:16.213Z,50.53
2023-01-26T01:48:52.147Z,54.00
2023-01-26T01:51:22.330Z,54.80
2023-01-26T01:53:53.193Z,53.17
2023-01-26T01:56:24.801Z,54.67
2023-01-26T01:58:59.120Z,54.60
2023-01-26T02:01:28.008Z,51.40
2023-01-26T02:04:00.861Z,53.17
2023-01-26T02:06:36.444Z,54.03
2023-01-26T02:09:06.896Z,53.77
2023-01-26T02:11:40.522Z,53.33
2023-01-26T02:14:12.921Z,54.07
2023-01-26T02:16:40.938Z,52.20
2023-01-26T02:19:13.622Z,52.97
2023-01-26T02:21:42.757Z,53.10
2023-01-26T02:24:17.200Z,56.93
2023-01-26T02:26:46.586Z,53.97
2023-01-26T02:29:15.045Z,51.33
2023-01-26T02:31:45.124Z,48.87
2023-01-26T02:34:13.020Z,52.93
2023-01-26T02:36:41.062Z,53.33
2023-01-26T02:39:23.770Z,50.97
2023-01-26T02:42:11.404Z,50.23
2023-01-26T02:44:40.635Z,52.77
2023-01-26T02:47:19.459Z,51.50
2023-01-26T02:49:50.834Z,54.60
2023-01-26T02:52:20.454Z,49.90
2023-01-26T02:55:05.664Z,49.97
2023-01-26T02:57:35.452Z,48.57
2023-01-26T03:00:03.633Z,48.23
2023-01-26T03:02:31.701Z,51.37
2023-01-26T03:04:59.668Z,48.07
2023-01-26T03:07:27.575Z,49.57
2023-01-26T03:09:55.522Z,50.37
2023-01-26T03:12:23.587Z,46.67
2023-01-26T03:15:17.430Z,46.90
2023-01-26T03:17:45.573Z,48.17
2023-01-26T03:20:31.211Z,47.37
2023-01-26T03:23:16.824Z,46.60
2023-01-26T03:26:02.235Z,48.00
2023-01-26T03:28:30.104Z,47.50
2023-01-26T03:30:59.588Z,49.53
2023-01-26T03:33:27.493Z,52.47
2023-01-26T03:35:56.039Z,47.63
2023-01-26T03:38:23.988Z,49.40
2023-01-26T03:41:09.325Z,48.37
2023-01-26T03:43:54.664Z,50.43
2023-01-26T03:46:41.495Z,47.93
2023-01-26T03:49:26.907Z,48.00
2023-01-26T03:52:12.083Z,48.90
2023-01-26T03:54:57.477Z,47.27
2023-01-26T03:57:25.398Z,47.17
2023-01-26T03:59:53.354Z,46.70
2023-01-26T04:02:40.097Z,45.90
2023-01-26T04:05:26.362Z,43.30
2023-01-26T04:08:11.509Z,42.37
2023-01-26T04:10:39.368Z,43.30
2023-01-26T04:13:24.861Z,42.67
2023-01-26T04:16:10.731Z,45.40
2023-01-26T04:18:57.531Z,45.17
2023-01-26T04:21:27.958Z,44.87
2023-01-26T04:23:57.415Z,45.40
2023-01-26T04:26:26.161Z,43.17
2023-01-26T04:28:54.098Z,42.07
2023-01-26T04:31:22.130Z,43.83
2023-01-26T04:33:51.544Z,41.83
2023-01-26T04:36:19.514Z,43.20
2023-01-26T04:38:47.472Z,42.17
2023-01-26T04:41:15.284Z,41.17
2023-01-26T04:43:43.314Z,39.93
2023-01-26T04:46:11.572Z,39.47
2023-01-26T04:48:39.469Z,40.10
2023-01-26T04:51:13.515Z,37.43
2023-01-26T04:53:41.968Z,38.80
2023-01-26T04:56:24.774Z,41.97
2023-01-26T04:58:53.156Z,39.87
2023-01-26T05:01:21.713Z,39.07
2023-01-26T05:03:50.086Z,37.90
2023-01-26T05:06:19.665Z,36.50
2023-01-26T05:08:47.520Z,36.80
2023-01-26T05:11:15.699Z,34.67
2023-01-26T05:13:43.684Z,33.47
2023-01-26T05:16:14.041Z,33.17
2023-01-26T05:18:42.352Z,34.57
2023-01-26T05:21:11.305Z,32.47
2023-01-26T05:23:40.673Z,32.87
2023-01-26T05:26:09.453Z,32.17
2023-01-26T05:28:37.729Z,31.90
2023-01-26T05:31:05.820Z,29.57
2023-01-26T05:33:33.841Z,28.17
2023-01-26T05:36:07.003Z,27.70
2023-01-26T05:38:35.022Z,30.03
2023-01-26T05:41:04.280Z,28.50
2023-01-26T05:43:32.205Z,27.53
2023-01-26T05:46:00.407Z,28.00
2023-01-26T05:48:28.557Z,27.40
2023-01-26T05:50:57.656Z,29.27
2023-01-26T05:53:25.887Z,28.63
2023-01-26T05:55:53.752Z,25.67
2023-01-26T05:58:23.025Z,28.53
2023-01-26T06:00:51.023Z,25.37
2023-01-26T06:03:18.864Z,26.60
2023-01-26T06:05:54.109Z,25.63
2023-01-26T06:08:22.111Z,24.97
2023-01-26T06:10:49.953Z,25.23
2023-01-26T06:13:17.917Z,24.10
2023-01-26T06:15:47.128Z,26.93
2023-01-26T06:18:14.926Z,24.97
2023-01-26T06:20:44.351Z,25.77
2023-01-26T06:23:12.684Z,23.70
2023-01-26T06:25:40.532Z,26.53
2023-01-26T06:28:08.561Z,25.03
2023-01-26T06:30:36.468Z,26.43
2023-01-26T06:33:06.945Z,25.70
2023-01-26T06:35:36.108Z,23.63
2023-01-26T06:38:04.390Z,24.13
2023-01-26T06:40:32.484Z,25.40
2023-01-26T06:43:00.496Z,26.07
2023-01-26T06:45:28.481Z,23.13
2023-01-26T06:47:56.300Z,25.33
2023-01-26T06:50:27.946Z,24.47
2023-01-26T06:52:57.783Z,23.13
2023-01-26T06:55:34.123Z,25.43
2023-01-26T06:58:02.019Z,22.80
2023-01-26T07:00:30.185Z,22.60
2023-01-26T07:02:58.130Z,23.90
2023-01-26T07:05:27.424Z,24.47
2023-01-26T07:07:55.385Z,23.17
2023-01-26T07:10:23.362Z,25.00
2023-01-26T07:12:51.185Z,24.30
2023-01-26T07:15:19.546Z,24.47
2023-01-26T07:17:47.470Z,23.07
2023-01-26T07:20:15.442Z,21.63
2023-01-26T07:22:44.828Z,21.97
2023-01-26T07:25:12.706Z,22.57
2023-01-26T07:27:40.591Z,22.17
2023-01-26T07:30:10.000Z,22.93
2023-01-26T07:32:38.194Z,23.83
2023-01-26T07:35:07.164Z,23.07
2023-01-26T07:37:35.134Z,25.17
2023-01-26T07:40:06.088Z,22.47
2023-01-26T07:42:34.035Z,21.73
2023-01-26T07:45:02.334Z,24.70
2023-01-26T07:47:30.333Z,25.57
2023-01-26T07:49:58.258Z,24.53
2023-01-26T07:52:26.864Z,24.53
2023-01-26T07:54:54.783Z,26.17
2023-01-26T07:57:24.035Z,27.07
2023-01-26T07:59:51.926Z,25.57
2023-01-26T08:02:20.175Z,24.10
2023-01-26T08:04:49.162Z,27.37
2023-01-26T08:07:16.974Z,25.90
2023-01-26T08:09:44.852Z,24.77
2023-01-26T08:12:12.704Z,25.17
2023-01-26T08:14:47.169Z,24.77
2023-01-26T08:17:17.470Z,23.63
2023-01-26T08:19:45.459Z,26.20
2023-01-26T08:22:15.943Z,25.63
2023-01-26T08:24:43.838Z,23.17
2023-01-26T08:27:11.719Z,27.50
2023-01-26T08:29:41.214Z,26.17
2023-01-26T08:32:09.318Z,25.50
2023-01-26T08:34:37.533Z,27.20
2023-01-26T08:37:05.340Z,27.30
2023-01-26T08:39:33.283Z,26.00
2023-01-26T08:42:01.125Z,26.67
2023-01-26T08:44:28.948Z,24.50
2023-01-26T08:46:58.411Z,25.90
2023-01-26T08:49:26.335Z,24.03
2023-01-26T08:51:54.185Z,24.50
2023-01-26T08:54:27.283Z,24.20
2023-01-26T08:56:55.346Z,25.47
2023-01-26T08:59:24.963Z,22.20
2023-01-26T09:01:52.904Z,22.43
2023-01-26T09:04:23.066Z,21.93
2023-01-26T09:06:50.900Z,22.40
2023-01-26T09:09:18.879Z,20.80
2023-01-26T09:11:47.027Z,21.03
2023-01-26T09:14:14.890Z,19.93
2023-01-26T09:16:42.783Z,21.63
2023-01-26T09:19:10.673Z,19.40
2023-01-26T09:21:39.913Z,19.20
2023-01-26T09:24:08.374Z,18.90
2023-01-26T09:26:36.681Z,17.47
2023-01-26T09:29:04.862Z,18.77
2023-01-26T09:31:33.142Z,15.30
2023-01-26T09:34:01.070Z,16.80
2023-01-26T09:36:28.978Z,15.80
2023-01-26T09:38:58.268Z,16.33
2023-01-26T09:41:45.097Z,15.23
2023-01-26T09:44:19.687Z,14.73
2023-01-26T09:46:59.239Z,16.80
2023-01-26T09:49:30.679Z,14.27
2023-01-26T09:52:04.540Z,15.07
2023-01-26T09:54:40.313Z,15.50
2023-01-26T09:57:14.799Z,15.73
2023-01-26T09:59:48.377Z,16.27
2023-01-26T10:02:34.418Z,16.27
2023-01-26T10:05:05.843Z,14.13
2023-01-26T10:07:33.632Z,14.77
2023-01-26T10:10:05.771Z,16.83
2023-01-26T10:12:37.467Z,17.57
2023-01-26T10:15:09.700Z,14.33
2023-01-26T10:17:40.980Z,17.07
2023-01-26T10:20:19.052Z,14.20
2023-01-26T10:22:49.903Z,19.10
2023-01-26T10:25:21.488Z,16.37
2023-01-26T10:27:49.529Z,17.53
2023-01-26T10:30:20.088Z,18.03
2023-01-26T10:32:51.957Z,18.33
2023-01-26T10:35:22.149Z,19.83
2023-01-26T10:37:52.798Z,19.00
2023-01-26T10:40:22.446Z,19.70
2023-01-26T10:42:58.770Z,20.73
2023-01-26T10:45:29.952Z,21.30
2023-01-26T10:48:05.246Z,23.70
2023-01-26T10:50:33.279Z,23.67
2023-01-26T10:53:02.832Z,21.83
2023-01-26T10:55:33.815Z,21.43
2023-01-26T10:58:02.594Z,23.00
2023-01-26T11:00:33.406Z,19.53
2023-01-26T11:03:07.960Z,23.63
2023-01-26T11:05:35.982Z,20.47
2023-01-26T11:08:06.972Z,24.33
2023-01-26T11:10:38.592Z,20.43
2023-01-26T11:13:19.338Z,22.47
2023-01-26T11:15:49.339Z,24.23
2023-01-26T11:18:28.543Z,23.23
2023-01-26T11:21:02.401Z,22.20
2023-01-26T11:23:50.196Z,25.90
2023-01-26T11:26:33.252Z,23.20
2023-01-26T11:29:19.549Z,28.90
2023-01-26T11:31:58.701Z,24.53
2023-01-26T11:34:36.973Z,28.40
2023-01-26T11:37:30.765Z,23.77
2023-01-26T11:40:05.042Z,23.97
2023-01-26T11:42:42.984Z,29.97
2023-01-26T11:45:23.230Z,25.13
2023-01-26T11:48:04.477Z,22.07
2023-01-26T11:50:39.820Z,24.13
2023-01-26T11:53:36.691Z,22.73
2023-01-26T11:56:18.137Z,21.77
2023-01-26T11:58:54.645Z,23.13
2023-01-26T12:01:35.189Z,20.03
2023-01-26T12:04:03.391Z,23.73
2023-01-26T12:06:38.269Z,23.23
2023-01-26T12:09:10.784Z,30.77
2023-01-26T12:11:41.637Z,30.13
2023-01-26T12:14:23.295Z,27.67
2023-01-26T12:17:17.146Z,32.77
2023-01-26T12:19:54.029Z,24.87
2023-01-26T12:22:29.626Z,32.13
2023-01-26T12:25:20.209Z,35.70
2023-01-26T12:27:56.319Z,24.93
2023-01-26T12:30:35.673Z,23.90
2023-01-26T12:33:03.731Z,24.00
2023-01-26T12:35:50.397Z,38.33
2023-01-26T12:38:24.188Z,30.10
2023-01-26T12:41:04.580Z,28.03
2023-01-26T12:43:53.307Z,33.30
2023-01-26T12:46:24.869Z,27.50
2023-01-26T12:48:58.170Z,24.47
2023-01-26T12:51:31.772Z,25.37
2023-01-26T12:54:06.122Z,26.10
2023-01-26T12:56:40.737Z,20.27
2023-01-26T12:59:28.277Z,24.77
2023-01-26T13:02:21.559Z,25.93
2023-01-26T13:04:51.475Z,27.10
2023-01-26T13:07:34.677Z,25.43
2023-01-26T13:10:23.044Z,24.00
2023-01-26T13:12:56.963Z,23.27
2023-01-26T13:15:26.824Z,19.20
2023-01-26T13:17:58.827Z,20.67
2023-01-26T13:20:45.867Z,19.27
2023-01-26T13:23:42.698Z,17.50
2023-01-26T13:26:18.805Z,18.30
2023-01-26T13:28:48.384Z,15.97
2023-01-26T13:31:34.263Z,13.23
2023-01-26T13:34:09.037Z,13.37
2023-01-26T13:36:40.220Z,18.60
2023-01-26T13:39:15.087Z,17.37
2023-01-26T13:41:48.708Z,15.77
2023-01-26T13:44:21.796Z,15.40
2023-01-26T13:46:56.485Z,13.57
2023-01-26T13:49:28.424Z,16.43
2023-01-26T13:51:56.323Z,15.90
2023-01-26T13:54:27.795Z,14.33
2023-01-26T13:57:04.212Z,15.17
2023-01-26T13:59:33.146Z,13.47
2023-01-26T14:02:01.645Z,14.70
2023-01-26T14:04:32.631Z,14.97
2023-01-26T14:07:04.838Z,14.23
2023-01-26T14:09:36.184Z,12.20
2023-01-26T14:12:06.571Z,14.70
2023-01-26T14:14:37.935Z,12.40
2023-01-26T14:17:09.115Z,11.67
2023-01-26T14:19:42.611Z,15.30
2023-01-26T14:22:15.122Z,13.33
2023-01-26T14:24:43.199Z,15.00
2023-01-26T14:27:29.962Z,17.57
2023-01-26T14:29:58.135Z,16.30
2023-01-26T14:32:29.435Z,12.27
2023-01-26T14:35:01.193Z,11.27
2023-01-26T14:37:29.753Z,11.80
2023-01-26T14:40:21.645Z,11.90
2023-01-26T14:42:51.092Z,11.07
2023-01-26T14:45:25.485Z,11.60
2023-01-26T14:47:54.787Z,12.93
2023-01-26T14:50:28.332Z,12.80
2023-01-26T14:52:56.680Z,12.10
2023-01-26T14:55:29.072Z,15.13
2023-01-26T14:57:57.835Z,14.13
2023-01-26T15:00:28.628Z,10.73
2023-01-26T15:02:58.851Z,12.83
2023-01-26T15:05:35.485Z,10.40
2023-01-26T15:08:05.367Z,14.40
2023-01-26T15:10:38.336Z,12.00
2023-01-26T15:13:21.650Z,10.93
2023-01-26T15:16:03.914Z,11.97
2023-01-26T15:18:33.089Z,11.40
2023-01-26T15:21:13.449Z,14.17
2023-01-26T15:23:44.523Z,12.23
2023-01-26T15:26:15.908Z,11.40
2023-01-26T15:28:43.947Z,11.43
2023-01-26T15:31:22.348Z,11.23
2023-01-26T15:33:52.372Z,11.13
2023-01-26T15:36:34.583Z,12.43
2023-01-26T15:39:10.919Z,11.30
2023-01-26T15:41:38.840Z,13.43
2023-01-26T15:44:06.909Z,14.40
2023-01-26T15:46:34.826Z,12.00
2023-01-26T15:49:02.947Z,12.20
2023-01-26T15:51:32.299Z,13.23
2023-01-26T15:54:00.185Z,13.13
2023-01-26T15:56:28.164Z,13.97
2023-01-26T15:58:55.952Z,14.63
2023-01-26T16:01:24.253Z,12.87
2023-01-26T16:03:52.444Z,14.60
2023-01-26T16:06:25.986Z,15.10
2023-01-26T16:08:55.547Z,16.40
2023-01-26T16:11:26.668Z,16.93
2023-01-26T16:14:03.201Z,15.33
2023-01-26T16:16:32.579Z,16.73
2023-01-26T16:19:00.685Z,15.53
2023-01-26T16:21:33.013Z,17.77
2023-01-26T16:24:02.839Z,17.17
2023-01-26T16:26:31.606Z,19.70
2023-01-26T16:28:59.770Z,18.33
2023-01-26T16:31:33.503Z,20.63
2023-01-26T16:34:02.111Z,19.23
2023-01-26T16:36:30.150Z,20.63
2023-01-26T16:38:57.973Z,20.77
2023-01-26T16:41:29.697Z,20.63
2023-01-26T16:44:00.022Z,22.90
2023-01-26T16:46:28.890Z,25.00
2023-01-26T16:48:57.449Z,23.23
2023-01-26T16:51:26.801Z,20.20
2023-01-26T16:53:55.532Z,23.57
2023-01-26T16:56:24.335Z,21.63
2023-01-26T16:58:53.517Z,22.23
2023-01-26T17:01:23.538Z,21.87
2023-01-26T17:03:52.221Z,23.33
2023-01-26T17:06:20.952Z,25.37
2023-01-26T17:08:48.957Z,24.83
2023-01-26T17:11:22.265Z,25.30
2023-01-26T17:13:51.477Z,25.63
2023-01-26T17:16:25.351Z,25.13
2023-01-26T17:18:54.638Z,22.73
2023-01-26T17:21:23.383Z,21.10
2023-01-26T17:23:53.444Z,20.10
2023-01-26T17:26:22.513Z,22.90
2023-01-26T17:28:55.025Z,25.67
2023-01-26T17:31:25.572Z,20.33
2023-01-26T17:33:55.642Z,29.00
2023-01-26T17:36:23.733Z,26.70
2023-01-26T17:38:53.251Z,26.63
2023-01-26T17:41:21.200Z,25.63
2023-01-26T17:43:51.606Z,23.50
2023-01-26T17:46:21.640Z,24.87
2023-01-26T17:48:51.367Z,24.27
2023-01-26T17:51:21.932Z,20.53
2023-01-26T17:53:53.217Z,22.90
2023-01-26T17:56:23.234Z,20.87
2023-01-26T17:58:55.048Z,20.60
2023-01-26T18:01:25.125Z,19.37
2023-01-26T18:03:54.700Z,17.83
2023-01-26T18:06:22.612Z,17.40
2023-01-26T18:08:50.689Z,18.37
2023-01-26T18:11:18.827Z,24.77
2023-01-26T18:13:46.682Z,13.80
2023-01-26T18:16:17.555Z,19.70
2023-01-26T18:18:45.537Z,14.73
2023-01-26T18:21:17.886Z,20.13
2023-01-26T18:23:47.028Z,18.07
2023-01-26T18:26:15.771Z,18.57
2023-01-26T18:28:44.813Z,16.37
2023-01-26T18:31:14.184Z,16.30
2023-01-26T18:33:42.118Z,14.10
2023-01-26T18:36:12.153Z,19.33
2023-01-26T18:38:41.970Z,16.70
2023-01-26T18:41:17.431Z,17.50
2023-01-26T18:43:48.366Z,20.13
2023-01-26T18:46:16.466Z,14.67
2023-01-26T18:48:44.826Z,17.60
2023-01-26T18:51:13.032Z,17.30
2023-01-26T18:53:42.434Z,19.17
2023-01-26T18:56:12.280Z,16.27
2023-01-26T18:58:41.328Z,14.63
2023-01-26T19:01:13.534Z,16.13
2023-01-26T19:03:47.350Z,17.80
2023-01-26T19:06:18.374Z,18.30
2023-01-26T19:08:48.968Z,15.93
2023-01-26T19:11:16.879Z,17.63
2023-01-26T19:13:48.852Z,17.87
2023-01-26T19:16:16.804Z,18.83
2023-01-26T19:18:44.834Z,18.23
2023-01-26T19:21:12.953Z,17.70
2023-01-26T19:23:42.665Z,17.07
2023-01-26T19:26:13.203Z,21.73
2023-01-26T19:28:42.051Z,19.50
2023-01-26T19:31:10.940Z,16.53
2023-01-26T19:33:39.314Z,20.67
2023-01-26T19:36:08.948Z,18.10
2023-01-26T19:38:39.905Z,16.17
2023-01-26T19:41:07.979Z,24.53
2023-01-26T19:43:37.472Z,22.73
2023-01-26T19:46:08.468Z,20.33
2023-01-26T19:48:36.642Z,20.70
2023-01-26T19:51:07.230Z,19.30
2023-01-26T19:53:37.101Z,21.27
2023-01-26T19:56:08.958Z,22.90
2023-01-26T19:58:38.800Z,17.43
2023-01-26T20:01:08.313Z,20.77
2023-01-26T20:03:36.751Z,19.47
2023-01-26T20:06:06.311Z,21.70
2023-01-26T20:08:34.268Z,18.10
2023-01-26T20:11:05.592Z,19.40
2023-01-26T20:13:33.980Z,16.77
2023-01-26T20:16:04.557Z,20.83
2023-01-26T20:18:32.893Z,14.80
2023-01-26T20:21:01.146Z,16.63
2023-01-26T20:23:29.356Z,19.17
2023-01-26T20:26:02.596Z,15.43
2023-01-26T20:28:31.010Z,18.07
2023-01-26T20:31:07.148Z,13.13
2023-01-26T20:33:35.150Z,15.10
2023-01-26T20:36:07.065Z,19.07
2023-01-26T20:38:35.000Z,11.93
2023-01-26T20:41:07.933Z,18.87
2023-01-26T20:43:39.259Z,11.90
2023-01-26T20:46:11.145Z,14.33
2023-01-26T20:48:39.576Z,15.93
2023-01-26T20:51:11.699Z,16.67
2023-01-26T20:53:40.171Z,15.97
2023-01-26T20:56:09.172Z,14.97
2023-01-26T20:58:37.547Z,16.80
2023-01-26T21:01:06.438Z,14.80
2023-01-26T21:03:38.111Z,14.07
2023-01-26T21:06:08.639Z,13.80
2023-01-26T21:08:38.675Z,14.83
2023-01-26T21:11:10.936Z,14.47
2023-01-26T21:13:41.503Z,15.80
2023-01-26T21:16:10.653Z,11.97
2023-01-26T21:18:40.216Z,13.27
2023-01-26T21:21:10.258Z,13.03
2023-01-26T21:23:38.455Z,16.50
2023-01-26T21:26:09.531Z,12.23
2023-01-26T21:28:38.331Z,8.67
2023-01-26T21:31:09.326Z,11.23
2023-01-26T21:33:42.161Z,10.60
2023-01-26T21:36:12.126Z,10.87
2023-01-26T21:38:42.238Z,7.90
2023-01-26T21:41:26.811Z,8.43
2023-01-26T21:43:58.231Z,9.40
2023-01-26T21:46:26.939Z,8.80
2023-01-26T21:48:56.259Z,6.50
2023-01-26T21:51:43.273Z,5.90
2023-01-26T21:54:11.494Z,8.03
2023-01-26T21:56:39.852Z,7.10
2023-01-26T21:59:10.153Z,8.17
2023-01-26T22:01:40.258Z,6.93
2023-01-26T22:04:12.531Z,7.70
2023-01-26T22:06:40.738Z,6.33
2023-01-26T22:09:11.626Z,9.03
2023-01-26T22:11:40.378Z,6.23
2023-01-26T22:14:08.268Z,6.53
2023-01-26T22:16:36.162Z,8.23
2023-01-26T22:19:04.377Z,7.67
2023-01-26T22:21:33.797Z,6.30
2023-01-26T22:24:01.769Z,5.83
2023-01-26T22:26:30.101Z,5.47
2023-01-26T22:28:59.671Z,5.40
2023-01-26T22:31:29.882Z,5.80
2023-01-26T22:34:00.017Z,6.03
2023-01-26T22:36:28.988Z,5.23
2023-01-26T22:39:00.499Z,5.73
2023-01-26T22:41:30.131Z,5.97
2023-01-26T22:43:59.771Z,4.00
2023-01-26T22:46:29.684Z,4.67
2023-01-26T22:48:58.431Z,4.77
2023-01-26T22:51:28.656Z,5.90
2023-01-26T22:54:00.538Z,4.93
2023-01-26T22:56:29.486Z,5.50
2023-01-26T22:59:00.425Z,4.30
2023-01-26T23:01:30.185Z,4.20
2023-01-26T23:03:59.208Z,3.77
2023-01-26T23:06:28.660Z,3.83
2023-01-26T23:08:59.278Z,4.97
2023-01-26T23:11:30.163Z,4.83
2023-01-26T23:13:59.931Z,2.80
2023-01-26T23:16:29.047Z,3.10
2023-01-26T23:18:59.576Z,3.77
2023-01-26T23:21:29.106Z,2.43
2023-01-26T23:23:58.265Z,4.03
2023-01-26T23:26:26.577Z,4.33
2023-01-26T23:28:56.045Z,2.87
2023-01-26T23:31:24.341Z,2.40
2023-01-26T23:33:53.106Z,2.60
2023-01-26T23:36:21.723Z,3.13
2023-01-26T23:38:49.678Z,3.07
2023-01-26T23:41:17.933Z,2.87
2023-01-26T23:43:46.128Z,2.77
2023-01-26T23:46:15.509Z,3.03
2023-01-26T23:48:43.708Z,2.20
2023-01-26T23:51:12.850Z,3.07
2023-01-26T23:53:41.375Z,2.33
2023-01-26T23:56:19.516Z,2.30
2023-01-26T23:58:47.663Z,2.00
